Time;durP1;ratioP1;P1;durP2;ratioP2;P2;SDS_P1;SDS_P2;PMS_P1;PMS_P2;Temp;Humidity;BMP_temperature;BMP_pressure;BME280_temperature;BME280_humidity;BME280_pressure;Samples;Min_cycle;Max_cycle;Signal;HPM_P1;HPM_P2
2022/05/28 00:00:53;;;;;;;;;;;;;;;22.32;54.46;100046.22;2061759;28;20387;-54
2022/05/28 00:01:54;;;;;;;;;;;;;;;22.33;54.35;100058.94;2063433;28;19967;-55
2022/05/28 00:02:54;;;;;;;;;;;;;;;22.32;54.19;100051.72;2064576;28;20015;-55
2022/05/28 00:03:57;;;;;;;;;;;;;;;22.32;54.32;100046.22;2066623;28;20327;-55
2022/05/28 00:04:57;;;;;;;;;;;;;;;22.33;54.34;100045.22;2074014;28;19924;-55
2022/05/28 00:05:58;;;;;;;;;;;;;;;22.32;54.34;100046.22;2072718;28;19917;-54
2022/05/28 00:06:58;;;;;;;;;;;;;;;22.33;54.16;100050.72;2066706;28;20655;-55
2022/05/28 00:07:59;;;;;;;;;;;;;;;22.32;54.08;100040.72;2065024;28;19975;-55
2022/05/28 00:09:00;;;;;;;;;;;;;;;22.33;54.27;100039.72;2061544;28;19917;-55
2022/05/28 00:10:00;;;;;;;;;;;;;;;22.33;54.25;100042.47;2062202;28;19921;-54
2022/05/28 00:11:01;;;;;;;;;;;;;;;22.32;54.35;100044.38;2060904;28;19922;-55
2022/05/28 00:12:01;;;;;;;;;;;;;;;22.32;54.17;100036.13;2064276;28;20421;-55
2022/05/28 00:13:02;;;;;;;;;;;;;;;22.32;54.04;100030.63;2065264;28;19920;-55
2022/05/28 00:14:04;;;;;;;;;;;;;;;22.32;54.24;100040.72;2068209;28;20102;-56
2022/05/28 00:15:05;;;;;;;;;;;;;;;22.32;54.11;100030.63;2065564;28;19910;-54
2022/05/28 00:16:05;;;;;;;;;;;;;;;22.32;54.17;100032.50;2068423;28;20205;-55
2022/05/28 00:17:05;;;;;;;;;;;;;;;22.31;54.12;100037.13;2063149;28;20363;-55
2022/05/28 00:18:06;;;;;;;;;;;;;;;22.32;54.16;100040.72;2066497;28;19909;-55
2022/05/28 00:19:06;;;;;;;;;;;;;;;22.32;54.26;100029.75;2061700;28;20336;-54
2022/05/28 00:20:07;;;;;;;;;;;;;;;22.32;54.33;100035.25;2063934;28;19967;-55
2022/05/28 00:21:08;;;;;;;;;;;;;;;22.32;54.30;100032.50;2065088;28;19928;-55
2022/05/28 00:22:08;;;;;;;;;;;;;;;22.32;54.36;100029.75;2068493;28;19908;-54
2022/05/28 00:23:09;;;;;;;;;;;;;;;22.32;54.14;100032.50;2069762;28;20450;-55
2022/05/28 00:24:09;;;;;;;;;;;;;;;22.31;54.21;100028.91;2067820;28;19920;-55
2022/05/28 00:25:11;;;;;;;;;;;;;;;22.31;54.36;100039.03;2059986;28;20318;-55
2022/05/28 00:26:12;;;;;;;;;;;;;;;22.31;54.36;100034.41;2063949;28;20385;-54
2022/05/28 00:27:12;;;;;;;;;;;;;;;22.31;54.37;100031.66;2069455;28;20231;-55
2022/05/28 00:28:14;;;;;;;;;;;;;;;22.31;54.29;100030.78;2066674;28;19909;-55
2022/05/28 00:29:15;;;;;;;;;;;;;;;22.31;54.10;100028.06;2068425;28;19921;-55
2022/05/28 00:30:16;;;;;;;;;;;;;;;22.30;54.47;100023.59;2063878;28;19973;-55
2022/05/28 00:31:16;;;;;;;;;;;;;;;22.29;54.36;100030.09;2065475;28;20704;-55
2022/05/28 00:32:16;;;;;;;;;;;;;;;22.29;54.36;100024.63;2070077;28;19923;-55
2022/05/28 00:33:17;;;;;;;;;;;;;;;22.30;54.35;100020.84;2064346;28;19924;-55
2022/05/28 00:34:17;;;;;;;;;;;;;;;22.30;54.35;100026.34;2070376;28;19916;-54
2022/05/28 00:35:19;;;;;;;;;;;;;;;22.29;54.45;100027.34;2062334;28;19917;-55
2022/05/28 00:36:19;;;;;;;;;;;;;;;22.29;54.31;100021.88;2071020;28;20392;-55
2022/05/28 00:37:19;;;;;;;;;;;;;;;22.28;54.64;100020.16;2069182;28;19924;-54
2022/05/28 00:38:20;;;;;;;;;;;;;;;22.29;54.54;100024.63;2067089;28;19917;-55
2022/05/28 00:39:20;;;;;;;;;;;;;;;22.28;54.33;100022.91;2069406;28;19984;-55
2022/05/28 00:40:22;;;;;;;;;;;;;;;22.28;54.48;100014.69;2067415;28;19917;-54
2022/05/28 00:41:23;;;;;;;;;;;;;;;22.26;54.56;100021.19;2063688;28;20326;-54
2022/05/28 00:42:23;;;;;;;;;;;;;;;22.27;54.38;100016.56;2067104;28;19909;-54
2022/05/28 00:43:24;;;;;;;;;;;;;;;22.29;54.40;100024.63;2059519;28;19918;-55
2022/05/28 00:44:25;;;;;;;;;;;;;;;22.27;54.55;100019.31;2064362;28;20153;-55
2022/05/28 00:45:26;;;;;;;;;;;;;;;22.26;54.52;100010.19;2064631;28;20424;-55
2022/05/28 00:46:26;;;;;;;;;;;;;;;22.27;54.39;100022.06;2063836;28;19909;-55
2022/05/28 00:47:27;;;;;;;;;;;;;;;22.26;54.40;100010.19;2068619;28;19925;-55
2022/05/28 00:48:29;;;;;;;;;;;;;;;22.27;54.49;100011.06;2069036;28;19925;-54
2022/05/28 00:49:30;;;;;;;;;;;;;;;22.28;54.17;100009.19;2062721;28;20196;-55
2022/05/28 00:50:31;;;;;;;;;;;;;;;22.28;54.38;100011.94;2067252;28;20942;-55
2022/05/28 00:51:33;;;;;;;;;;;;;;;22.28;54.21;100011.94;2063633;28;19918;-55
2022/05/28 00:52:33;;;;;;;;;;;;;;;22.28;54.35;100006.44;2066002;28;19916;-55
2022/05/28 00:53:34;;;;;;;;;;;;;;;22.28;54.40;100006.44;2066698;28;20326;-54
2022/05/28 00:54:42;;;;;;;;;;;;;;;22.26;54.44;100010.19;2061728;28;20632;-54
2022/05/28 00:55:43;;;;;;;;;;;;;;;22.28;54.39;100000.94;2070855;28;19920;-54
2022/05/28 00:56:43;;;;;;;;;;;;;;;22.27;54.21;100000.09;2068337;28;20003;-54
2022/05/28 00:57:44;;;;;;;;;;;;;;;22.28;54.23;100000.94;2060884;28;19960;-54
2022/05/28 00:58:45;;;;;;;;;;;;;;;22.28;54.43;99995.44;2069478;28;19997;-55
2022/05/28 00:59:46;;;;;;;;;;;;;;;22.26;54.18;99999.22;2069697;28;19909;-54
2022/05/28 01:00:46;;;;;;;;;;;;;;;22.27;54.18;99991.84;2063878;28;20272;-54
2022/05/28 01:01:47;;;;;;;;;;;;;;;22.26;54.25;99999.22;2064994;28;19916;-55
2022/05/28 01:03:08;;;;;;;;;;;;;;;22.28;54.33;99995.44;2060547;28;19929;-55
2022/05/28 01:04:32;;;;;;;;;;;;;;;22.27;54.31;99991.84;2060696;28;20323;-55
2022/05/28 01:05:35;;;;;;;;;;;;;;;22.26;54.32;99993.72;2061817;28;20426;-54
2022/05/28 01:06:46;;;;;;;;;;;;;;;22.26;54.22;99990.13;2065520;28;19923;-55
2022/05/28 01:07:53;;;;;;;;;;;;;;;22.25;54.64;99992.00;2061170;28;19924;-54
2022/05/28 01:08:58;;;;;;;;;;;;;;;22.25;54.33;99983.78;2067063;28;19910;-55
2022/05/28 01:09:58;;;;;;;;;;;;;;;22.24;54.35;99979.34;2063711;28;19936;-55
2022/05/28 01:11:19;;;;;;;;;;;;;;;22.25;54.54;99982.94;2068077;28;20323;-55
2022/05/28 01:12:22;;;;;;;;;;;;;;;22.25;54.64;99983.78;2067853;28;20347;-55
2022/05/28 01:13:25;;;;;;;;;;;;;;;22.25;54.40;99981.03;2061424;28;19920;-55
2022/05/28 01:14:31;;;;;;;;;;;;;;;22.24;54.43;99984.81;2064782;28;19917;-54
2022/05/28 01:15:33;;;;;;;;;;;;;;;22.23;54.57;99983.09;2064610;28;19917;-54
2022/05/28 01:16:40;;;;;;;;;;;;;;;22.23;54.56;99976.75;2065689;28;19917;-54
2022/05/28 01:18:00;;;;;;;;;;;;;;;22.23;54.51;99976.75;2065691;28;19917;-55
2022/05/28 01:19:04;;;;;;;;;;;;;;;22.24;54.39;99983.94;2058632;28;19920;-55
2022/05/28 01:20:11;;;;;;;;;;;;;;;22.22;54.64;99973.16;2064987;28;21035;-55
2022/05/28 01:21:20;;;;;;;;;;;;;;;22.23;54.36;99976.75;2065152;28;19917;-54
2022/05/28 01:22:20;;;;;;;;;;;;;;;22.22;54.44;99970.41;2066907;28;19917;-55
2022/05/28 01:23:28;;;;;;;;;;;;;;;22.23;54.44;99966.63;2068070;28;19924;-55
2022/05/28 01:24:46;;;;;;;;;;;;;;;22.23;54.57;99972.09;2066802;28;19917;-55
2022/05/28 01:26:05;;;;;;;;;;;;;;;22.23;54.50;99972.09;2068888;28;20232;-55
2022/05/28 01:27:09;;;;;;;;;;;;;;;22.24;54.41;99968.34;2063251;28;19925;-55
2022/05/28 01:28:13;;;;;;;;;;;;;;;22.24;54.38;99967.47;2066752;28;20116;-55
2022/05/28 01:29:16;;;;;;;;;;;;;;;22.24;54.55;99968.34;2067818;28;20381;-55
2022/05/28 01:30:17;;;;;;;;;;;;;;;22.25;54.43;99969.19;2065522;28;19916;-55
2022/05/28 01:31:17;;;;;;;;;;;;;;;22.24;54.47;99973.84;2067475;28;20353;-55
2022/05/28 01:32:19;;;;;;;;;;;;;;;22.24;54.50;99964.72;2065785;28;19909;-55
2022/05/28 01:33:20;;;;;;;;;;;;;;;22.23;54.50;99966.63;2065672;28;20345;-54
2022/05/28 01:34:21;;;;;;;;;;;;;;;22.23;54.44;99966.63;2066281;28;19951;-55
2022/05/28 01:35:23;;;;;;;;;;;;;;;22.23;54.26;99958.38;2064624;28;20267;-55
2022/05/28 01:36:24;;;;;;;;;;;;;;;22.23;54.52;99961.13;2062482;28;19981;-55
2022/05/28 01:37:24;;;;;;;;;;;;;;;22.24;54.52;99962.84;2065383;28;20371;-55
2022/05/28 01:38:25;;;;;;;;;;;;;;;22.23;54.55;99966.63;2066448;28;20559;-55
2022/05/28 01:39:26;;;;;;;;;;;;;;;22.22;54.57;99953.94;2063654;28;19917;-55
2022/05/28 01:40:27;;;;;;;;;;;;;;;22.22;54.45;99953.94;2063179;28;19990;-55
2022/05/28 01:41:29;;;;;;;;;;;;;;;22.22;54.43;99959.44;2062230;28;19925;-54
2022/05/28 01:42:30;;;;;;;;;;;;;;;22.22;54.73;99953.94;2067199;28;19916;-55
2022/05/28 01:43:33;;;;;;;;;;;;;;;22.21;54.57;99952.19;2067903;28;20254;-55
2022/05/28 01:44:34;;;;;;;;;;;;;;;22.21;54.65;99956.84;2068428;28;20311;-55
2022/05/28 01:45:35;;;;;;;;;;;;;;;22.20;54.58;99950.50;2069810;28;19963;-55
2022/05/28 01:46:37;;;;;;;;;;;;;;;22.20;54.71;99950.50;2068176;28;20041;-55
2022/05/28 01:47:38;;;;;;;;;;;;;;;22.20;54.73;99942.25;2067568;28;20331;-55
2022/05/28 01:48:40;;;;;;;;;;;;;;;22.20;54.71;99947.75;2061553;28;19948;-55
2022/05/28 01:49:41;;;;;;;;;;;;;;;22.20;54.76;99956.00;2061738;28;19917;-55
2022/05/28 01:50:45;;;;;;;;;;;;;;;22.20;54.69;99953.25;2067612;28;19948;-55
2022/05/28 01:51:48;;;;;;;;;;;;;;;22.19;54.68;99943.25;2067523;28;19968;-55
2022/05/28 01:52:50;;;;;;;;;;;;;;;22.20;54.67;99939.53;2062986;28;19918;-55
2022/05/28 01:54:07;;;;;;;;;;;;;;;22.19;54.53;99937.75;2065489;28;19909;-54
2022/05/28 01:55:08;;;;;;;;;;;;;;;22.19;54.58;99940.50;2067373;28;19917;-55
2022/05/28 01:56:09;;;;;;;;;;;;;;;22.19;54.49;99934.16;2061714;28;19969;-55
2022/05/28 01:57:11;;;;;;;;;;;;;;;22.19;54.50;99932.25;2065660;28;19917;-55
2022/05/28 01:58:11;;;;;;;;;;;;;;;22.19;54.63;99940.50;2061843;28;19979;-55
2022/05/28 01:59:13;;;;;;;;;;;;;;;22.19;54.53;99932.25;2066762;28;20294;-56
2022/05/28 02:00:13;;;;;;;;;;;;;;;22.20;54.44;99935.91;2064135;28;19917;-55
2022/05/28 02:01:14;;;;;;;;;;;;;;;22.20;54.50;99935.91;2063266;28;20396;-55
2022/05/28 02:02:15;;;;;;;;;;;;;;;22.19;54.49;99935.00;2061900;28;20396;-55
2022/05/28 02:03:15;;;;;;;;;;;;;;;22.20;54.61;99933.19;2064029;28;19928;-55
2022/05/28 02:04:16;;;;;;;;;;;;;;;22.20;54.66;99928.53;2068106;28;19925;-55
2022/05/28 02:05:16;;;;;;;;;;;;;;;22.19;54.52;99932.25;2063289;28;19956;-55
2022/05/28 02:06:16;;;;;;;;;;;;;;;22.20;54.46;99928.53;2068620;28;19917;-55
2022/05/28 02:07:17;;;;;;;;;;;;;;;22.20;54.69;99922.19;2064297;28;20304;-55
2022/05/28 02:08:18;;;;;;;;;;;;;;;22.20;54.63;99923.03;2068023;28;20008;-55
2022/05/28 02:09:21;;;;;;;;;;;;;;;22.19;54.52;99924.03;2062527;28;19918;-55
2022/05/28 02:10:22;;;;;;;;;;;;;;;22.20;54.62;99922.19;2067902;28;19917;-54
2022/05/28 02:11:25;;;;;;;;;;;;;;;22.21;54.44;99918.41;2071934;28;19908;-55
2022/05/28 02:12:31;;;;;;;;;;;;;;;22.19;54.67;99918.53;2062282;28;20386;-54
2022/05/28 02:13:41;;;;;;;;;;;;;;;22.20;54.57;99922.19;2066941;28;20164;-55
2022/05/28 02:14:41;;;;;;;;;;;;;;;22.19;54.57;99921.28;2069584;28;19917;-55
2022/05/28 02:15:48;;;;;;;;;;;;;;;22.18;54.63;99914.09;2061548;28;19917;-55
2022/05/28 02:16:49;;;;;;;;;;;;;;;22.18;54.67;99914.09;2073635;28;20448;-54
2022/05/28 02:17:52;;;;;;;;;;;;;;;22.18;54.64;99914.09;2077618;28;20124;-55
2022/05/28 02:18:56;;;;;;;;;;;;;;;22.19;54.55;99915.78;2067533;28;19978;-55
2022/05/28 02:20:02;;;;;;;;;;;;;;;22.18;54.90;99914.09;2066698;28;20343;-55
2022/05/28 02:21:05;;;;;;;;;;;;;;;22.18;54.80;99908.59;2064543;28;19917;-54
2022/05/28 02:22:10;;;;;;;;;;;;;;;22.18;54.78;99908.59;2062930;28;19917;-55
2022/05/28 02:23:13;;;;;;;;;;;;;;;22.17;54.62;99904.16;2065250;28;19949;-54
2022/05/28 02:24:13;;;;;;;;;;;;;;;22.17;54.67;99906.91;2070426;28;19924;-55
2022/05/28 02:25:34;;;;;;;;;;;;;;;22.17;54.78;99904.16;2065981;28;19945;-55
2022/05/28 02:26:37;;;;;;;;;;;;;;;22.18;54.84;99902.25;2059474;28;20374;-54
2022/05/28 02:27:39;;;;;;;;;;;;;;;22.17;54.71;99908.75;2068117;28;20033;-55
2022/05/28 02:28:41;;;;;;;;;;;;;;;22.16;54.61;99902.41;2080574;28;20239;-55
2022/05/28 02:29:42;;;;;;;;;;;;;;;22.17;54.89;99895.91;2069493;28;20336;-55
2022/05/28 02:30:46;;;;;;;;;;;;;;;22.17;54.84;99901.41;2064569;28;19908;-54
2022/05/28 02:31:47;;;;;;;;;;;;;;;22.17;54.68;99898.66;2060990;28;19918;-55
2022/05/28 02:32:57;;;;;;;;;;;;;;;22.17;54.61;99901.41;2070333;28;20038;-55
2022/05/28 02:33:58;;;;;;;;;;;;;;;22.16;54.78;99899.69;2070055;28;19917;-55
2022/05/28 02:34:58;;;;;;;;;;;;;;;22.18;54.67;99897.63;2067964;28;19917;-55
2022/05/28 02:35:59;;;;;;;;;;;;;;;22.18;54.62;99889.38;2070467;28;19967;-55
2022/05/28 02:36:59;;;;;;;;;;;;;;;22.18;54.76;99896.75;2069446;28;20328;-55
2022/05/28 02:37:59;;;;;;;;;;;;;;;22.17;54.61;99901.41;2067404;28;19979;-55
2022/05/28 02:39:00;;;;;;;;;;;;;;;22.17;54.77;99889.53;2068709;28;19925;-55
2022/05/28 02:40:01;;;;;;;;;;;;;;;22.17;54.76;99893.16;2061577;28;19928;-55
2022/05/28 02:41:01;;;;;;;;;;;;;;;22.17;54.69;99889.53;2068220;28;19917;-55
2022/05/28 02:42:02;;;;;;;;;;;;;;;22.16;54.60;99891.44;2065756;28;20008;-54
2022/05/28 02:43:03;;;;;;;;;;;;;;;22.17;54.84;99889.53;2065996;28;20287;-55
2022/05/28 02:44:03;;;;;;;;;;;;;;;22.16;54.78;99883.19;2070459;28;19956;-55
2022/05/28 02:45:04;;;;;;;;;;;;;;;22.16;54.86;99880.47;2070508;28;20349;-55
2022/05/28 02:46:05;;;;;;;;;;;;;;;22.16;54.68;99888.69;2063566;28;19921;-55
2022/05/28 02:47:06;;;;;;;;;;;;;;;22.17;54.87;99886.78;2065973;28;19952;-54
2022/05/28 02:48:07;;;;;;;;;;;;;;;22.16;54.83;99885.94;2060051;28;20181;-55
2022/05/28 02:49:07;;;;;;;;;;;;;;;22.15;54.89;99887.00;2065720;28;20949;-55
2022/05/28 02:50:09;;;;;;;;;;;;;;;22.15;54.75;99884.25;2064499;28;19909;-55
2022/05/28 02:51:14;;;;;;;;;;;;;;;22.16;54.88;99874.97;2061250;28;20330;-55
2022/05/28 02:52:15;;;;;;;;;;;;;;;22.16;55.01;99885.94;2069049;28;19956;-55
2022/05/28 02:53:15;;;;;;;;;;;;;;;22.15;55.04;99875.16;2067473;28;19928;-54
2022/05/28 02:54:15;;;;;;;;;;;;;;;22.14;54.82;99879.78;2067788;28;19921;-54
2022/05/28 02:55:16;;;;;;;;;;;;;;;22.14;54.91;99877.03;2071181;28;19924;-55
2022/05/28 02:56:17;;;;;;;;;;;;;;;22.15;55.05;99877.91;2066926;28;20020;-55
2022/05/28 02:57:17;;;;;;;;;;;;;;;22.14;54.89;99877.03;2069046;28;19971;-55
2022/05/28 02:58:17;;;;;;;;;;;;;;;22.15;54.94;99880.66;2068728;28;19909;-54
2022/05/28 02:59:18;;;;;;;;;;;;;;;22.14;54.91;99878.91;2068294;28;19921;-55
2022/05/28 03:00:18;;;;;;;;;;;;;;;22.14;55.03;99879.78;2071768;28;20169;-55
2022/05/28 03:01:22;;;;;;;;;;;;;;;22.14;55.14;99878.91;2063813;28;20319;-54
2022/05/28 03:02:26;;;;;;;;;;;;;;;22.14;55.04;99879.78;2066489;28;20327;-55
2022/05/28 03:03:26;;;;;;;;;;;;;;;22.14;55.11;99874.28;2069121;28;20299;-55
2022/05/28 03:04:26;;;;;;;;;;;;;;;22.14;54.74;99874.28;2064194;28;19936;-55
2022/05/28 03:05:27;;;;;;;;;;;;;;;22.14;55.04;99876.19;2068339;28;20182;-55
2022/05/28 03:06:27;;;;;;;;;;;;;;;22.14;54.79;99879.78;2067352;28;19916;-55
2022/05/28 03:07:27;;;;;;;;;;;;;;;22.14;54.79;99879.78;2065373;28;20114;-55
2022/05/28 03:08:27;;;;;;;;;;;;;;;22.15;54.78;99880.66;2062773;28;19925;-55
2022/05/28 03:09:28;;;;;;;;;;;;;;;22.14;54.88;99873.44;2065763;28;20285;-55
2022/05/28 03:10:28;;;;;;;;;;;;;;;22.15;54.72;99875.16;2060564;28;20277;-55
2022/05/28 03:11:29;;;;;;;;;;;;;;;22.14;54.98;99878.91;2060576;28;19917;-55
2022/05/28 03:12:29;;;;;;;;;;;;;;;22.15;54.83;99878.75;2059592;28;19952;-55
2022/05/28 03:13:29;;;;;;;;;;;;;;;22.15;54.78;99880.66;2060487;28;20476;-54
2022/05/28 03:14:29;;;;;;;;;;;;;;;22.15;54.94;99880.66;2069126;28;19953;-55
2022/05/28 03:15:30;;;;;;;;;;;;;;;22.15;54.81;99872.41;2075112;28;20133;-55
2022/05/28 03:16:31;;;;;;;;;;;;;;;22.15;54.75;99876.00;2068640;28;20627;-55
2022/05/28 03:17:31;;;;;;;;;;;;;;;22.14;54.98;99873.44;2069049;28;19924;-55
2022/05/28 03:18:31;;;;;;;;;;;;;;;22.14;54.95;99868.78;2069485;28;20279;-55
2022/05/28 03:19:32;;;;;;;;;;;;;;;22.14;54.97;99868.78;2068532;28;20378;-54
2022/05/28 03:20:32;;;;;;;;;;;;;;;22.13;54.91;99869.84;2066383;28;19917;-55
2022/05/28 03:21:32;;;;;;;;;;;;;;;22.14;54.95;99874.28;2068989;28;19921;-55
2022/05/28 03:22:33;;;;;;;;;;;;;;;22.13;54.98;99867.09;2070718;28;19916;-55
2022/05/28 03:23:33;;;;;;;;;;;;;;;22.12;55.03;99865.38;2061912;28;19975;-55
2022/05/28 03:24:33;;;;;;;;;;;;;;;22.13;55.04;99872.59;2065747;28;20750;-55
2022/05/28 03:25:34;;;;;;;;;;;;;;;22.12;55.09;99870.88;2061578;28;19917;-55
2022/05/28 03:26:34;;;;;;;;;;;;;;;22.13;55.18;99867.09;2063977;28;20017;-55
2022/05/28 03:27:34;;;;;;;;;;;;;;;22.12;54.88;99868.13;2059423;28;19925;-55
2022/05/28 03:28:34;;;;;;;;;;;;;;;22.12;54.96;99870.88;2067195;28;20356;-54
2022/05/28 03:29:35;;;;;;;;;;;;;;;22.11;55.14;99863.66;2065118;28;19924;-54
2022/05/28 03:30:36;;;;;;;;;;;;;;;22.11;55.14;99869.16;2067045;28;19921;-55
2022/05/28 03:31:36;;;;;;;;;;;;;;;22.11;55.13;99862.81;2068352;28;19917;-55
2022/05/28 03:32:36;;;;;;;;;;;;;;;22.10;55.33;99863.81;2065344;28;20413;-55
2022/05/28 03:33:36;;;;;;;;;;;;;;;22.10;55.42;99867.44;2067254;28;19944;-55
2022/05/28 03:34:37;;;;;;;;;;;;;;;22.09;55.38;99871.22;2067360;28;19998;-54
2022/05/28 03:35:37;;;;;;;;;;;;;;;22.09;55.31;99865.72;2067039;28;19924;-55
2022/05/28 03:36:38;;;;;;;;;;;;;;;22.09;55.39;99865.72;2068403;28;20347;-55
2022/05/28 03:37:38;;;;;;;;;;;;;;;22.09;55.43;99871.22;2064191;28;19921;-55
2022/05/28 03:38:38;;;;;;;;;;;;;;;22.09;55.26;99865.72;2070729;28;20246;-55
2022/05/28 03:39:39;;;;;;;;;;;;;;;22.09;55.24;99862.97;2075295;28;20369;-55
2022/05/28 03:40:39;;;;;;;;;;;;;;;22.09;55.36;99864.88;2065021;28;20403;-54
2022/05/28 03:41:40;;;;;;;;;;;;;;;22.08;55.20;99861.28;2066661;28;20314;-55
2022/05/28 03:42:40;;;;;;;;;;;;;;;22.08;55.31;99864.03;2064101;28;19917;-55
2022/05/28 03:43:41;;;;;;;;;;;;;;;22.08;55.22;99864.03;2064118;28;20275;-55
2022/05/28 03:44:41;;;;;;;;;;;;;;;22.08;55.15;99864.03;2064892;28;20284;-55
2022/05/28 03:45:41;;;;;;;;;;;;;;;22.08;55.26;99864.03;2065456;28;19921;-55
2022/05/28 03:46:43;;;;;;;;;;;;;;;22.08;55.28;99864.03;2066036;28;19921;-55
2022/05/28 03:47:43;;;;;;;;;;;;;;;22.08;55.04;99863.16;2067339;28;20397;-55
2022/05/28 03:48:44;;;;;;;;;;;;;;;22.09;55.28;99870.34;2066974;28;19916;-55
2022/05/28 03:49:45;;;;;;;;;;;;;;;22.07;55.25;99867.78;2066455;28;19924;-55
2022/05/28 03:50:45;;;;;;;;;;;;;;;22.08;55.26;99865.91;2065609;28;19916;-55
2022/05/28 03:51:45;;;;;;;;;;;;;;;22.08;55.26;99865.91;2066017;28;19924;-55
2022/05/28 03:52:46;;;;;;;;;;;;;;;22.08;55.09;99863.16;2075308;28;20737;-55
2022/05/28 03:53:46;;;;;;;;;;;;;;;22.07;55.13;99865.03;2075625;28;20334;-55
2022/05/28 03:54:46;;;;;;;;;;;;;;;22.08;55.15;99860.41;2068190;28;19917;-55
2022/05/28 03:55:47;;;;;;;;;;;;;;;22.07;55.16;99851.31;2067507;28;19979;-55
2022/05/28 03:56:48;;;;;;;;;;;;;;;22.07;55.27;99850.47;2067283;28;19927;-55
2022/05/28 03:57:48;;;;;;;;;;;;;;;22.06;55.14;99855.09;2066751;28;19917;-55
2022/05/28 03:58:50;;;;;;;;;;;;;;;22.05;55.38;99857.00;2074489;28;20284;-55
2022/05/28 03:59:51;;;;;;;;;;;;;;;22.05;55.15;99858.88;2068781;28;19952;-55
2022/05/28 04:00:51;;;;;;;;;;;;;;;22.05;55.17;99856.13;2066534;28;19918;-53
2022/05/28 04:01:53;;;;;;;;;;;;;;;22.05;55.10;99858.88;2066351;28;19917;-53
2022/05/28 04:02:53;;;;;;;;;;;;;;;22.06;55.17;99855.09;2063728;28;20145;-53
2022/05/28 04:03:53;;;;;;;;;;;;;;;22.05;55.14;99864.38;2064900;28;20019;-53
2022/05/28 04:04:54;;;;;;;;;;;;;;;22.04;55.14;99857.16;2065552;28;19921;-53
2022/05/28 04:05:54;;;;;;;;;;;;;;;22.03;55.27;99856.31;2065299;28;20195;-53
2022/05/28 04:06:55;;;;;;;;;;;;;;;22.04;55.16;99862.66;2066205;28;20382;-53
2022/05/28 04:07:55;;;;;;;;;;;;;;;22.03;55.13;99855.47;2066742;28;19967;-54
2022/05/28 04:08:55;;;;;;;;;;;;;;;22.03;55.12;99852.72;2065260;28;19920;-54
2022/05/28 04:09:55;;;;;;;;;;;;;;;22.04;55.20;99868.13;2063248;28;19921;-53
2022/05/28 04:10:56;;;;;;;;;;;;;;;22.04;55.32;99857.16;2064927;28;20288;-53
2022/05/28 04:11:56;;;;;;;;;;;;;;;22.03;55.29;99858.19;2063672;28;19913;-54
2022/05/28 04:12:57;;;;;;;;;;;;;;;22.03;55.22;99858.19;2063337;28;19924;-54
2022/05/28 04:13:57;;;;;;;;;;;;;;;22.03;55.12;99859.03;2062950;28;19909;-54
2022/05/28 04:14:58;;;;;;;;;;;;;;;22.04;55.31;99858.00;2072497;28;19958;-54
2022/05/28 04:15:58;;;;;;;;;;;;;;;22.04;55.22;99859.91;2073523;28;20031;-55
2022/05/28 04:16:59;;;;;;;;;;;;;;;22.04;55.11;99851.66;2064031;28;19990;-55
2022/05/28 04:17:59;;;;;;;;;;;;;;;22.04;55.21;99857.16;2063431;28;19987;-54
2022/05/28 04:18:59;;;;;;;;;;;;;;;22.04;55.23;99851.66;2062233;28;19923;-55
2022/05/28 04:20:00;;;;;;;;;;;;;;;22.04;55.16;99858.00;2063094;28;19921;-55
2022/05/28 04:21:00;;;;;;;;;;;;;;;22.04;55.05;99851.66;2063107;28;19925;-55
2022/05/28 04:22:00;;;;;;;;;;;;;;;22.03;55.07;99856.31;2065193;28;19921;-54
2022/05/28 04:23:01;;;;;;;;;;;;;;;22.03;55.03;99850.81;2064501;28;20276;-55
2022/05/28 04:24:01;;;;;;;;;;;;;;;22.03;55.23;99849.97;2067777;28;19917;-55
2022/05/28 04:25:02;;;;;;;;;;;;;;;22.03;55.07;99844.47;2066811;28;19917;-54
2022/05/28 04:26:02;;;;;;;;;;;;;;;22.03;55.05;99856.31;2061367;28;20002;-55
2022/05/28 04:27:03;;;;;;;;;;;;;;;22.03;55.12;99858.19;2066165;28;19960;-54
2022/05/28 04:28:03;;;;;;;;;;;;;;;22.03;55.20;99850.81;2065066;28;19917;-55
2022/05/28 04:29:04;;;;;;;;;;;;;;;22.04;54.99;99851.66;2070692;28;19917;-55
2022/05/28 04:30:04;;;;;;;;;;;;;;;22.03;55.21;99850.81;2066966;28;19983;-55
2022/05/28 04:31:05;;;;;;;;;;;;;;;22.02;55.20;99849.13;2068683;28;19963;-55
2022/05/28 04:32:05;;;;;;;;;;;;;;;22.02;55.25;99848.22;2065285;28;20286;-54
2022/05/28 04:33:05;;;;;;;;;;;;;;;22.02;55.25;99850.97;2068117;28;20393;-55
2022/05/28 04:34:06;;;;;;;;;;;;;;;22.01;55.36;99841.91;2072276;28;20128;-55
2022/05/28 04:35:07;;;;;;;;;;;;;;;22.01;55.08;99850.13;2074857;28;19951;-55
2022/05/28 04:36:07;;;;;;;;;;;;;;;22.02;55.14;99848.22;2065974;28;19983;-55
2022/05/28 04:37:07;;;;;;;;;;;;;;;22.01;55.41;99846.53;2068649;28;20470;-55
2022/05/28 04:38:08;;;;;;;;;;;;;;;22.01;55.08;99846.53;2066949;28;19917;-55
2022/05/28 04:39:08;;;;;;;;;;;;;;;22.00;55.24;99840.19;2066086;28;19997;-55
2022/05/28 04:40:09;;;;;;;;;;;;;;;22.00;55.24;99848.44;2067775;28;20095;-55
2022/05/28 04:41:09;;;;;;;;;;;;;;;22.00;55.08;99851.19;2064347;28;20462;-55
2022/05/28 04:42:10;;;;;;;;;;;;;;;21.99;55.36;99843.09;2069209;28;20325;-55
2022/05/28 04:43:10;;;;;;;;;;;;;;;22.00;55.14;99842.09;2064998;28;20388;-56
2022/05/28 04:44:10;;;;;;;;;;;;;;;22.00;55.11;99844.84;2066161;28;20004;-55
2022/05/28 04:45:10;;;;;;;;;;;;;;;21.99;55.07;99840.34;2065802;28;20620;-55
2022/05/28 04:46:11;;;;;;;;;;;;;;;21.99;55.28;99843.94;2062056;28;19916;-55
2022/05/28 04:47:11;;;;;;;;;;;;;;;22.00;55.24;99844.84;2067101;28;19999;-55
2022/05/28 04:48:12;;;;;;;;;;;;;;;22.00;55.22;99844.84;2064278;28;20191;-55
2022/05/28 04:49:12;;;;;;;;;;;;;;;21.99;55.03;99840.34;2064185;28;19973;-55
2022/05/28 04:50:13;;;;;;;;;;;;;;;21.99;55.10;99843.94;2068180;28;19951;-55
2022/05/28 04:51:14;;;;;;;;;;;;;;;21.99;55.07;99845.84;2065412;28;19921;-55
2022/05/28 04:52:14;;;;;;;;;;;;;;;22.00;55.22;99850.31;2066111;28;19968;-55
2022/05/28 04:53:14;;;;;;;;;;;;;;;22.00;55.20;99844.84;2065535;28;19941;-55
2022/05/28 04:54:14;;;;;;;;;;;;;;;22.00;55.11;99853.06;2063343;28;20275;-55
2022/05/28 04:55:15;;;;;;;;;;;;;;;22.00;55.08;99855.81;2067574;28;20396;-55
2022/05/28 04:56:15;;;;;;;;;;;;;;;22.01;54.99;99849.28;2064297;28;19937;-55
2022/05/28 04:57:15;;;;;;;;;;;;;;;22.00;54.94;99847.56;2065562;28;19937;-55
2022/05/28 04:58:16;;;;;;;;;;;;;;;22.00;54.98;99845.69;2068586;28;19923;-55
2022/05/28 04:59:16;;;;;;;;;;;;;;;22.00;54.96;99850.31;2068675;28;20197;-55
2022/05/28 05:00:18;;;;;;;;;;;;;;;22.00;55.18;99847.56;2069199;28;19917;-53
2022/05/28 05:01:19;;;;;;;;;;;;;;;21.99;55.03;99843.94;2070067;28;19917;-54
2022/05/28 05:02:20;;;;;;;;;;;;;;;22.00;54.90;99850.31;2064968;28;20115;-53
2022/05/28 05:03:21;;;;;;;;;;;;;;;22.00;55.23;99845.69;2069106;28;19932;-53
2022/05/28 05:04:21;;;;;;;;;;;;;;;22.00;55.11;99844.84;2069500;28;19925;-53
2022/05/28 05:05:21;;;;;;;;;;;;;;;21.99;55.24;99852.19;2064252;28;19929;-53
2022/05/28 05:06:22;;;;;;;;;;;;;;;22.00;55.17;99847.56;2072029;28;19917;-53
2022/05/28 05:07:23;;;;;;;;;;;;;;;21.99;55.03;99843.94;2065679;28;20053;-54
2022/05/28 05:08:23;;;;;;;;;;;;;;;21.99;55.09;99848.59;2065057;28;20004;-54
2022/05/28 05:09:23;;;;;;;;;;;;;;;21.98;55.04;99844.16;2069417;28;20213;-53
2022/05/28 05:10:24;;;;;;;;;;;;;;;21.98;55.18;99850.47;2066319;28;20096;-53
2022/05/28 05:11:24;;;;;;;;;;;;;;;21.98;55.12;99850.47;2067867;28;19964;-54
2022/05/28 05:12:24;;;;;;;;;;;;;;;21.98;55.12;99846.91;2068307;28;20018;-53
2022/05/28 05:13:25;;;;;;;;;;;;;;;21.98;55.29;99842.25;2065685;28;19924;-53
2022/05/28 05:14:25;;;;;;;;;;;;;;;21.98;55.22;99844.16;2069733;28;19913;-53
2022/05/28 05:15:26;;;;;;;;;;;;;;;21.98;55.14;99841.41;2068463;28;20004;-53
2022/05/28 05:16:26;;;;;;;;;;;;;;;21.97;55.17;99839.66;2069978;28;20298;-54
2022/05/28 05:17:26;;;;;;;;;;;;;;;21.97;55.17;99846.00;2066929;28;20143;-53
2022/05/28 05:18:27;;;;;;;;;;;;;;;21.97;55.13;99839.66;2068844;28;19917;-53
2022/05/28 05:19:27;;;;;;;;;;;;;;;21.97;55.17;99845.16;2070098;28;20014;-53
2022/05/28 05:20:27;;;;;;;;;;;;;;;21.97;55.29;99839.66;2066302;28;19986;-53